Time;durP1;ratioP1;P1;durP2;ratioP2;P2;SDS_P1;SDS_P2;PMS_P1;PMS_P2;Temp;Humidity;BMP_temperature;BMP_pressure;BME280_temperature;BME280_humidity;BME280_pressure;Samples;Min_cycle;Max_cycle;Signal;HPM_P1;HPM_P2
2022/07/31 00:02:03;;;;;;;;;;;;;;;20.66;58.35;101850.97;4973775;28;97892;-35
2022/07/31 00:04:28;;;;;;;;;;;;;;;20.67;58.77;101842.56;4974978;28;97597;-34
2022/07/31 00:06:54;;;;;;;;;;;;;;;20.68;58.39;101838.81;4974848;28;96652;-35
2022/07/31 00:09:19;;;;;;;;;;;;;;;20.67;59.14;101834.31;4975318;28;96874;-34
2022/07/31 00:11:44;;;;;;;;;;;;;;;20.65;59.66;101829.97;4972625;28;98952;-34
2022/07/31 00:14:10;;;;;;;;;;;;;;;20.66;59.31;101826.19;4973624;28;101139;-34
2022/07/31 00:16:35;;;;;;;;;;;;;;;20.66;59.49;101829.81;4974974;28;96508;-34
2022/07/31 00:19:00;;;;;;;;;;;;;;;20.67;60.02;101822.44;4974759;28;96839;-34
2022/07/31 00:21:26;;;;;;;;;;;;;;;20.66;59.74;101816.03;4973904;28;98019;-34
2022/07/31 00:23:51;;;;;;;;;;;;;;;20.69;60.16;101820.38;4974675;28;97929;-34
2022/07/31 00:26:16;;;;;;;;;;;;;;;20.69;59.87;101818.53;4974923;28;96613;-34
2022/07/31 00:28:41;;;;;;;;;;;;;;;20.70;60.52;101817.50;4975139;28;96758;-34
2022/07/31 00:31:06;;;;;;;;;;;;;;;20.67;60.65;101817.78;4974634;28;97717;-34
2022/07/31 00:33:32;;;;;;;;;;;;;;;20.68;60.97;101816.78;4974465;28;97209;-34
2022/07/31 00:35:57;;;;;;;;;;;;;;;20.68;60.54;101805.75;4974873;28;96506;-34
2022/07/31 00:38:22;;;;;;;;;;;;;;;20.68;61.57;101811.25;4975048;28;96814;-34
2022/07/31 00:40:48;;;;;;;;;;;;;;;20.66;61.74;101806.91;4974216;28;99180;-34
2022/07/31 00:43:14;;;;;;;;;;;;;;;20.68;61.08;101814.03;4976003;28;100913;-34
2022/07/31 00:45:40;;;;;;;;;;;;;;;20.65;61.47;101806.03;4977272;28;96616;-34
2022/07/31 00:48:05;;;;;;;;;;;;;;;20.62;62.85;101799.91;4977947;28;96763;-34
2022/07/31 00:50:30;;;;;;;;;;;;;;;20.62;62.10;101795.31;4977285;28;99528;-34
2022/07/31 00:52:55;;;;;;;;;;;;;;;20.59;61.59;101801.06;4977386;28;98983;-34
2022/07/31 00:55:21;;;;;;;;;;;;;;;20.57;61.74;101805.88;4978043;28;96647;-34
2022/07/31 00:57:47;;;;;;;;;;;;;;;20.57;61.97;101800.38;4977490;28;96831;-34
2022/07/31 01:00:12;;;;;;;;;;;;;;;20.56;61.80;101790.34;4977563;28;98035;-35
2022/07/31 01:02:37;;;;;;;;;;;;;;;20.54;62.25;101792.31;4977864;28;97271;-34
2022/07/31 01:05:03;;;;;;;;;;;;;;;20.53;62.00;101785.09;4977338;28;96634;-35
2022/07/31 01:07:28;;;;;;;;;;;;;;;20.51;62.51;101778.84;4977560;28;96854;-35
2022/07/31 01:09:54;;;;;;;;;;;;;;;20.50;62.35;101779.84;4976359;28;99725;-36
2022/07/31 01:12:21;;;;;;;;;;;;;;;20.48;62.60;101782.75;4976487;28;98919;-34
2022/07/31 01:14:48;;;;;;;;;;;;;;;20.47;62.53;101785.63;4977377;28;96599;-34
2022/07/31 01:17:15;;;;;;;;;;;;;;;20.46;64.72;101775.63;4976080;28;96821;-34
2022/07/31 01:19:42;;;;;;;;;;;;;;;20.42;62.72;101780.50;4976814;28;99255;-35
2022/07/31 01:22:27;;;;;;;;;;;;;;;20.41;63.98;101788.94;4977062;28;97757;-35
2022/07/31 01:24:55;;;;;;;;;;;;;;;20.41;63.03;101786.19;4974695;28;96845;-35
2022/07/31 01:27:36;;;;;;;;;;;;;;;20.41;62.45;101788.94;4977771;28;96812;-34
2022/07/31 01:30:02;;;;;;;;;;;;;;;20.37;63.68;101783.66;4975544;28;101001;-34
2022/07/31 01:32:31;;;;;;;;;;;;;;;20.36;62.86;101784.69;4976437;28;99323;-34
2022/07/31 01:35:00;;;;;;;;;;;;;;;20.38;62.47;101784.56;4975153;28;96720;-34
2022/07/31 01:37:28;;;;;;;;;;;;;;;20.34;63.46;101781.19;4977053;28;96805;-34
2022/07/31 01:40:05;;;;;;;;;;;;;;;20.32;63.29;101790.59;4975289;28;100764;-34
2022/07/31 01:42:30;;;;;;;;;;;;;;;20.34;64.66;101788.59;4975185;28;101841;-35
2022/07/31 01:44:58;;;;;;;;;;;;;;;20.33;63.52;101784.06;4975400;28;96728;-34
2022/07/31 01:47:24;;;;;;;;;;;;;;;20.34;63.47;101783.09;4977042;28;96799;-34
2022/07/31 01:49:52;;;;;;;;;;;;;;;20.30;63.54;101787.97;4976857;28;97504;-34
2022/07/31 01:52:19;;;;;;;;;;;;;;;20.30;65.02;101779.72;4976455;28;97439;-34
2022/07/31 01:54:45;;;;;;;;;;;;;;;20.27;64.35;101776.38;4974711;28;96643;-35
2022/07/31 01:57:12;;;;;;;;;;;;;;;20.26;63.70;101781.03;4977020;28;96799;-35
2022/07/31 01:59:37;;;;;;;;;;;;;;;20.24;64.38;101782.16;4975929;28;98146;-34
2022/07/31 02:02:03;;;;;;;;;;;;;;;20.22;65.81;101767.66;4976183;28;99010;-34
2022/07/31 02:04:29;;;;;;;;;;;;;;;20.19;64.03;101754.16;4976660;28;96695;-34
2022/07/31 02:06:55;;;;;;;;;;;;;;;20.17;64.85;101765.31;4975365;28;96841;-35
2022/07/31 02:09:22;;;;;;;;;;;;;;;20.15;66.77;101759.06;4976682;28;97638;-35
2022/07/31 02:11:48;;;;;;;;;;;;;;;20.14;64.95;101757.31;4975599;28;97828;-35
2022/07/31 02:14:15;;;;;;;;;;;;;;;20.13;66.17;101750.06;4975278;28;96622;-35
2022/07/31 02:16:40;;;;;;;;;;;;;;;20.14;65.50;101746.31;4977286;28;96842;-34
2022/07/31 02:19:07;;;;;;;;;;;;;;;20.14;65.44;101738.06;4976110;28;98459;-34
2022/07/31 02:21:32;;;;;;;;;;;;;;;20.14;65.70;101735.28;4976230;28;98262;-34
2022/07/31 02:23:57;;;;;;;;;;;;;;;20.12;66.33;101729.09;4976028;28;96497;-35
2022/07/31 02:26:23;;;;;;;;;;;;;;;20.11;66.12;101727.31;4976435;28;96858;-35
2022/07/31 02:28:49;;;;;;;;;;;;;;;20.15;65.39;101734.31;4974512;28;101273;-35
2022/07/31 02:31:15;;;;;;;;;;;;;;;20.15;66.71;101735.19;4974661;28;100750;-34
2022/07/31 02:33:42;;;;;;;;;;;;;;;20.14;64.94;101733.44;4974686;28;96571;-35
2022/07/31 02:36:07;;;;;;;;;;;;;;;20.14;65.56;101735.28;4976243;28;96872;-34
2022/07/31 02:38:33;;;;;;;;;;;;;;;20.12;65.21;101732.69;4975951;28;97618;-35
2022/07/31 02:41:01;;;;;;;;;;;;;;;20.13;65.30;101736.31;4976143;28;97195;-35
2022/07/31 02:43:27;;;;;;;;;;;;;;;20.11;65.80;101724.56;4976030;28;96597;-35
2022/07/31 02:45:53;;;;;;;;;;;;;;;20.08;65.96;101722.09;4976066;28;96908;-35
2022/07/31 02:48:19;;;;;;;;;;;;;;;20.07;66.71;101721.25;4975672;28;97459;-35
2022/07/31 02:50:44;;;;;;;;;;;;;;;20.08;66.62;101722.09;4975770;28;97287;-34
2022/07/31 02:53:09;;;;;;;;;;;;;;;20.09;66.42;101724.72;4976060;28;96568;-34
2022/07/31 02:55:34;;;;;;;;;;;;;;;20.05;65.70;101733.38;4976082;28;96620;-34
2022/07/31 02:58:01;;;;;;;;;;;;;;;20.01;65.46;101731.91;4975046;28;97638;-34
2022/07/31 03:00:26;;;;;;;;;;;;;;;19.97;66.17;101735.91;4975335;28;99082;-34
2022/07/31 03:02:52;;;;;;;;;;;;;;;19.96;65.84;101726.78;4976068;28;96495;-34
2022/07/31 03:05:18;;;;;;;;;;;;;;;19.97;67.07;101730.41;4974449;28;96901;-34
2022/07/31 03:07:43;;;;;;;;;;;;;;;19.93;66.56;101730.69;4975220;28;99385;-35
2022/07/31 03:10:12;;;;;;;;;;;;;;;19.91;66.40;101718.94;4975090;28;99003;-35
2022/07/31 03:12:46;;;;;;;;;;;;;;;19.84;66.37;101711.38;4964358;28;96760;-35
2022/07/31 03:15:11;;;;;;;;;;;;;;;;;;4954717;28;96822;-34
2022/07/31 03:17:36;;;;;;;;;;;;;;;;;;4956023;28;97533;-34
2022/07/31 03:20:02;;;;;;;;;;;;;;;19.80;66.82;101702.50;4955860;28;97640;-34
2022/07/31 03:22:27;;;;;;;;;;;;;;;19.76;67.66;101711.16;4956265;28;96621;-34
2022/07/31 03:24:53;;;;;;;;;;;;;;;19.72;67.50;101714.19;4954360;28;96865;-35
2022/07/31 03:27:18;;;;;;;;;;;;;;;19.73;66.31;101717.78;4955457;28;99309;-34
2022/07/31 03:29:43;;;;;;;;;;;;;;;19.70;66.51;101716.19;4956424;28;97218;-34
2022/07/31 03:32:09;;;;;;;;;;;;;;;19.69;66.82;101719.94;4955865;28;96561;-35
2022/07/31 03:34:34;;;;;;;;;;;;;;;19.72;66.60;101716.06;4956031;28;96804;-34
2022/07/31 03:36:59;;;;;;;;;;;;;;;19.70;66.70;101713.44;4955231;28;97408;-35
2022/07/31 03:39:24;;;;;;;;;;;;;;;19.71;66.49;101715.19;4955398;28;97917;-35
2022/07/31 03:42:00;;;;;;;;;;;;;;;19.71;67.20;101717.94;4955578;28;96536;-34
2022/07/31 03:44:25;;;;;;;;;;;;;;;19.64;67.28;101719.44;4955540;28;96832;-34
2022/07/31 03:46:51;;;;;;;;;;;;;;;19.59;68.09;101710.69;4955519;28;97530;-34
2022/07/31 03:49:16;;;;;;;;;;;;;;;19.59;67.72;101715.31;4955409;28;97243;-35
2022/07/31 03:51:42;;;;;;;;;;;;;;;19.61;68.27;101721.56;4955537;28;96540;-34
2022/07/31 03:54:07;;;;;;;;;;;;;;;19.60;67.23;101717.97;4955790;28;96992;-34
2022/07/31 03:56:33;;;;;;;;;;;;;;;19.59;69.00;101716.19;4955063;28;99374;-35
2022/07/31 03:58:58;;;;;;;;;;;;;;;19.61;69.47;101719.69;4955054;28;97514;-34
2022/07/31 04:01:23;;;;;;;;;;;;;;;19.58;68.63;101713.59;4955194;28;96743;-34
2022/07/31 04:03:56;;;;;;;;;;;;;;;19.53;68.57;101714.00;4955602;28;96776;-34
2022/07/31 04:06:21;;;;;;;;;;;;;;;19.50;68.58;101706.88;4955351;28;98374;-35
2022/07/31 04:08:46;;;;;;;;;;;;;;;19.49;68.54;101713.38;4954766;28;107590;-35
2022/07/31 04:11:11;;;;;;;;;;;;;;;19.49;68.85;101704.25;4955447;28;96642;-34
2022/07/31 04:13:37;;;;;;;;;;;;;;;19.51;69.14;101708.63;4971663;28;96884;-35
2022/07/31 04:16:02;;;;;;;;;;;;;;;19.49;69.50;101705.13;4974884;28;97859;-34
2022/07/31 04:18:27;;;;;;;;;;;;;;;19.43;69.54;101707.53;4978576;28;97908;-34
2022/07/31 04:20:53;;;;;;;;;;;;;;;19.41;69.64;101699.44;4978285;28;96464;-35
2022/07/31 04:23:18;;;;;;;;;;;;;;;19.45;70.29;101703.66;4978048;28;96949;-35
2022/07/31 04:25:43;;;;;;;;;;;;;;;19.44;70.99;101701.91;4977358;28;101601;-35
2022/07/31 04:28:08;;;;;;;;;;;;;;;19.41;70.17;101690.31;4977843;28;99315;-35
2022/07/31 04:30:34;;;;;;;;;;;;;;;19.36;70.36;101696.19;4978303;28;96529;-35
2022/07/31 04:32:59;;;;;;;;;;;;;;;19.38;71.60;101683.22;4978185;28;96840;-34
2022/07/31 04:35:24;;;;;;;;;;;;;;;19.41;70.39;101688.44;4977976;28;97408;-34
2022/07/31 04:37:49;;;;;;;;;;;;;;;19.41;70.78;101680.19;4977687;28;97878;-35
2022/07/31 04:40:15;;;;;;;;;;;;;;;19.43;72.70;101682.81;4978156;28;96679;-34
2022/07/31 04:42:40;;;;;;;;;;;;;;;19.44;72.69;101684.53;4978342;28;96873;-34
2022/07/31 04:45:05;;;;;;;;;;;;;;;19.40;71.14;101688.56;4977843;28;97424;-34
2022/07/31 04:47:30;;;;;;;;;;;;;;;19.35;71.84;101688.06;4977714;28;97258;-35
2022/07/31 04:49:56;;;;;;;;;;;;;;;19.29;73.18;101687.59;4977310;28;96675;-34
2022/07/31 04:52:21;;;;;;;;;;;;;;;19.26;72.46;101687.88;4977569;28;96858;-34
2022/07/31 04:54:47;;;;;;;;;;;;;;;19.30;73.22;101692.09;4977720;28;97274;-34
2022/07/31 04:57:12;;;;;;;;;;;;;;;19.32;73.26;101691.97;4977069;28;98743;-34
2022/07/31 04:59:37;;;;;;;;;;;;;;;19.35;73.51;101682.59;4977673;28;96525;-34
2022/07/31 05:02:02;;;;;;;;;;;;;;;19.33;72.71;101685.47;4977516;28;96843;-34
2022/07/31 05:04:28;;;;;;;;;;;;;;;19.36;71.53;101670.59;4977332;28;97973;-34
2022/07/31 05:06:53;;;;;;;;;;;;;;;19.36;71.86;101687.09;4977312;28;99215;-34
2022/07/31 05:09:21;;;;;;;;;;;;;;;19.35;72.83;101682.59;4977635;28;96545;-34
2022/07/31 05:11:47;;;;;;;;;;;;;;;19.41;72.02;101676.56;4975413;28;96824;-35
2022/07/31 05:14:13;;;;;;;;;;;;;;;19.41;73.50;101676.56;4975236;28;100620;-34
2022/07/31 05:16:38;;;;;;;;;;;;;;;19.42;71.02;101684.66;4975848;28;100929;-34
2022/07/31 05:19:04;;;;;;;;;;;;;;;19.42;72.10;101692.03;4977247;28;96651;-34
2022/07/31 05:21:30;;;;;;;;;;;;;;;19.45;73.14;101680.78;4975911;28;96799;-34
2022/07/31 05:23:56;;;;;;;;;;;;;;;19.48;71.88;101675.91;4977239;28;97901;-34
2022/07/31 05:26:22;;;;;;;;;;;;;;;19.47;72.75;101685.16;4977124;28;97831;-34
2022/07/31 05:28:48;;;;;;;;;;;;;;;19.51;72.31;101685.75;4976858;28;96551;-34
2022/07/31 05:31:14;;;;;;;;;;;;;;;19.53;72.98;101692.88;4977435;28;96833;-34
2022/07/31 05:33:39;;;;;;;;;;;;;;;19.56;71.82;101685.38;4976796;28;97875;-34
2022/07/31 05:36:04;;;;;;;;;;;;;;;19.57;71.44;101682.50;4976689;28;97577;-35
2022/07/31 05:38:35;;;;;;;;;;;;;;;19.57;73.01;101679.75;4976650;28;96623;-34
2022/07/31 05:41:01;;;;;;;;;;;;;;;19.56;72.59;101678.00;4976900;28;96878;-34
2022/07/31 05:43:26;;;;;;;;;;;;;;;19.55;73.54;101678.13;4976480;28;98847;-34
2022/07/31 05:45:51;;;;;;;;;;;;;;;19.50;73.07;101684.91;4976815;28;97675;-34
2022/07/31 05:48:18;;;;;;;;;;;;;;;19.55;74.31;101689.13;4976743;28;96659;-34
2022/07/31 05:50:44;;;;;;;;;;;;;;;19.50;72.63;101676.66;4977392;28;97191;-35
2022/07/31 05:53:14;;;;;;;;;;;;;;;19.50;74.97;101671.16;4976325;28;97662;-34
2022/07/31 05:55:40;;;;;;;;;;;;;;;19.49;73.99;101666.66;4975400;28;100866;-34
2022/07/31 05:58:05;;;;;;;;;;;;;;;19.50;74.80;101676.66;4977025;28;96568;-34
2022/07/31 06:00:30;;;;;;;;;;;;;;;19.55;73.21;101676.25;4977038;28;96838;-35
2022/07/31 06:02:56;;;;;;;;;;;;;;;19.52;74.96;101671.00;4975809;28;99372;-34
2022/07/31 06:05:21;;;;;;;;;;;;;;;19.51;73.63;101672.03;4976331;28;96852;-34
2022/07/31 06:07:46;;;;;;;;;;;;;;;19.60;73.95;101673.13;4976443;28;96951;-34
2022/07/31 06:10:12;;;;;;;;;;;;;;;19.60;74.07;101684.09;4976473;28;96841;-34
2022/07/31 06:12:37;;;;;;;;;;;;;;;19.64;74.46;101682.81;4975393;28;99192;-34
2022/07/31 06:15:02;;;;;;;;;;;;;;;19.61;74.25;101685.84;4976197;28;98956;-34
2022/07/31 06:17:27;;;;;;;;;;;;;;;19.65;73.22;101687.31;4976636;28;96747;-35
2022/07/31 06:19:53;;;;;;;;;;;;;;;19.71;74.56;101679.47;4976799;28;96926;-34
2022/07/31 06:22:18;;;;;;;;;;;;;;;19.75;72.91;101687.44;4975969;28;99621;-35
2022/07/31 06:24:43;;;;;;;;;;;;;;;19.77;71.78;101686.28;4976205;28;97560;-35
2022/07/31 06:27:08;;;;;;;;;;;;;;;19.75;75.57;101687.44;4975782;28;102203;-35
2022/07/31 06:29:34;;;;;;;;;;;;;;;19.77;73.13;101679.94;4976536;28;96763;-34
2022/07/31 06:31:59;;;;;;;;;;;;;;;19.82;73.90;101675.75;4976019;28;98126;-35
2022/07/31 06:34:24;;;;;;;;;;;;;;;19.82;75.13;101672.13;4975718;28;98906;-34
2022/07/31 06:36:49;;;;;;;;;;;;;;;19.72;76.27;101678.44;4976460;28;96671;-34
2022/07/31 06:39:15;;;;;;;;;;;;;;;19.74;74.46;101686.56;4975654;28;96754;-34
2022/07/31 06:41:43;;;;;;;;;;;;;;;19.79;74.30;101680.66;4976082;28;97895;-34
2022/07/31 06:44:09;;;;;;;;;;;;;;;19.81;74.54;101684.16;4976151;28;97731;-34
2022/07/31 06:46:34;;;;;;;;;;;;;;;;;;4976163;28;96711;-34
2022/07/31 06:48:59;;;;;;;;;;;;;;;19.88;73.91;101682.63;4976199;28;96501;-35
2022/07/31 06:51:24;;;;;;;;;;;;;;;19.94;73.82;101682.91;4975094;28;104152;-34
2022/07/31 06:53:50;;;;;;;;;;;;;;;20.03;73.64;101670.25;4975806;28;97780;-34
2022/07/31 06:56:15;;;;;;;;;;;;;;;20.06;74.06;101666.34;4975921;28;96615;-34
2022/07/31 06:58:40;;;;;;;;;;;;;;;20.08;74.97;101672.59;4975650;28;96835;-34
2022/07/31 07:01:05;;;;;;;;;;;;;;;20.10;73.61;101682.44;4975428;28;99138;-34
2022/07/31 07:03:31;;;;;;;;;;;;;;;20.07;74.18;101676.31;4975419;28;97823;-35
2022/07/31 07:05:56;;;;;;;;;;;;;;;20.09;75.25;101680.72;4975824;28;96541;-34
2022/07/31 07:08:21;;;;;;;;;;;;;;;20.09;72.77;101675.22;4976007;28;96853;-34
2022/07/31 07:10:46;;;;;;;;;;;;;;;20.04;74.23;101673.84;4975648;28;97449;-34
2022/07/31 07:13:11;;;;;;;;;;;;;;;20.06;75.18;101680.09;4974713;28;98720;-34
2022/07/31 07:15:37;;;;;;;;;;;;;;;20.02;74.28;101678.63;4975700;28;96887;-34
2022/07/31 07:18:02;;;;;;;;;;;;;;;20.04;75.24;101677.47;4975659;28;96843;-34
2022/07/31 07:20:27;;;;;;;;;;;;;;;20.07;75.19;101677.22;4975493;28;97873;-34
2022/07/31 07:22:52;;;;;;;;;;;;;;;20.06;74.10;101675.47;4974774;28;118011;-34
2022/07/31 07:25:19;;;;;;;;;;;;;;;20.11;74.64;101662.16;4975660;28;96709;-34
2022/07/31 07:27:44;;;;;;;;;;;;;;;20.15;73.39;101665.53;4974142;28;96809;-34
2022/07/31 07:30:10;;;;;;;;;;;;;;;20.15;74.81;101665.53;4975317;28;97870;-34
2022/07/31 07:32:35;;;;;;;;;;;;;;;20.13;74.13;101664.78;4975131;28;97324;-34
2022/07/31 07:35:01;;;;;;;;;;;;;;;20.11;74.53;101669.56;4975396;28;96669;-34
2022/07/31 07:37:26;;;;;;;;;;;;;;;20.07;74.51;101662.56;4975412;28;96812;-35
2022/07/31 07:39:51;;;;;;;;;;;;;;;20.09;74.21;101660.56;4974719;28;97384;-34
2022/07/31 07:42:18;;;;;;;;;;;;;;;20.08;76.66;101659.69;4975141;28;97778;-34
2022/07/31 07:44:46;;;;;;;;;;;;;;;20.11;74.50;101653.06;4973998;28;96701;-34
2022/07/31 07:47:12;;;;;;;;;;;;;;;20.14;74.78;101656.41;4974021;28;96856;-34
2022/07/31 07:49:37;;;;;;;;;;;;;;;20.20;73.99;101660.50;4974902;28;98925;-34
2022/07/31 07:52:04;;;;;;;;;;;;;;;20.24;75.13;101661.97;4977632;28;111693;-34
2022/07/31 07:54:29;;;;;;;;;;;;;;;20.25;74.80;101658.19;4978995;28;96429;-34
2022/07/31 07:56:55;;;;;;;;;;;;;;;20.22;74.78;101661.22;4978824;28;96970;-35
2022/07/31 07:59:21;;;;;;;;;;;;;;;20.22;74.25;101672.22;4978083;28;97922;-34
2022/07/31 08:01:46;;;;;;;;;;;;;;;20.27;74.21;101672.69;4978685;28;97300;-34
2022/07/31 08:04:14;;;;;;;;;;;;;;;20.23;74.32;101667.59;4978055;28;96558;-34
2022/07/31 08:06:40;;;;;;;;;;;;;;;20.22;75.42;101676.88;4977079;28;96958;-34
2022/07/31 08:09:05;;;;;;;;;;;;;;;20.15;75.36;101663.66;4978095;28;98046;-34
2022/07/31 08:11:31;;;;;;;;;;;;;;;20.15;76.58;101662.78;4976447;28;101211;-34
2022/07/31 08:13:56;;;;;;;;;;;;;;;20.15;74.93;101660.91;4977129;28;96745;-35
2022/07/31 08:16:21;;;;;;;;;;;;;;;20.14;76.10;101663.78;4976068;28;98914;-34
2022/07/31 08:18:50;;;;;;;;;;;;;;;20.15;75.29;101654.53;4976116;28;99489;-35
2022/07/31 08:21:15;;;;;;;;;;;;;;;20.17;75.06;101660.78;4975434;28;101187;-35
2022/07/31 08:23:41;;;;;;;;;;;;;;;20.24;76.05;101661.09;4977259;28;96675;-35
2022/07/31 08:26:07;;;;;;;;;;;;;;;20.22;76.89;101652.97;4977702;28;96904;-35
2022/07/31 08:28:32;;;;;;;;;;;;;;;20.27;75.76;101656.19;4976618;28;99294;-35
2022/07/31 08:30:58;;;;;;;;;;;;;;;20.37;76.92;101650.72;4977180;28;99133;-35
2022/07/31 08:33:23;;;;;;;;;;;;;;;20.42;74.64;101653.91;4977927;28;96604;-34
2022/07/31 08:35:48;;;;;;;;;;;;;;;20.51;75.72;101653.09;4978595;28;96859;-35
2022/07/31 08:38:14;;;;;;;;;;;;;;;20.55;74.64;101657.34;4977925;28;98077;-34
2022/07/31 08:40:40;;;;;;;;;;;;;;;20.55;74.89;101662.84;4977867;28;97686;-34
2022/07/31 08:43:05;;;;;;;;;;;;;;;20.53;74.84;101663.97;4977925;28;96510;-34
2022/07/31 08:45:30;;;;;;;;;;;;;;;20.49;75.95;101666.09;4978512;28;96705;-34
2022/07/31 08:47:57;;;;;;;;;;;;;;;20.43;75.46;101672.19;4977703;28;97950;-35
2022/07/31 08:50:23;;;;;;;;;;;;;;;20.40;75.50;101664.19;4977682;28;97963;-34
2022/07/31 08:52:48;;;;;;;;;;;;;;;20.44;74.99;101670.31;4977251;28;96623;-34
2022/07/31 08:55:14;;;;;;;;;;;;;;;20.44;74.83;101662.03;4977956;28;96859;-34
2022/07/31 08:57:40;;;;;;;;;;;;;;;20.46;76.05;101671.91;4977187;28;97853;-34
2022/07/31 09:00:06;;;;;;;;;;;;;;;20.45;76.23;101677.53;4977153;28;99091;-34
2022/07/31 09:02:31;;;;;;;;;;;;;;;20.45;74.97;101664.66;4975721;28;96590;-34
2022/07/31 09:04:57;;;;;;;;;;;;;;;20.48;75.46;101658.88;4978092;28;96835;-34
2022/07/31 09:07:22;;;;;;;;;;;;;;;20.48;75.58;101667.13;4977385;28;97538;-34
2022/07/31 09:09:47;;;;;;;;;;;;;;;20.58;75.93;101661.69;4977482;28;99281;-35
2022/07/31 09:12:12;;;;;;;;;;;;;;;20.65;75.49;101670.28;4976739;28;96849;-34
2022/07/31 09:14:38;;;;;;;;;;;;;;;20.69;74.87;101660.69;4977691;28;96652;-34
2022/07/31 09:17:06;;;;;;;;;;;;;;;20.77;74.36;101664.50;4976736;28;98188;-35
2022/07/31 09:19:39;;;;;;;;;;;;;;;20.84;74.65;101653.78;4975683;28;100865;-34
2022/07/31 09:22:05;;;;;;;;;;;;;;;20.88;74.11;101648.84;4975855;28;96574;-34
2022/07/31 09:24:31;;;;;;;;;;;;;;;20.90;74.60;101661.47;4977516;28;96655;-34
2022/07/31 09:27:01;;;;;;;;;;;;;;;20.92;74.18;101653.06;4976891;28;99565;-34
2022/07/31 09:29:37;;;;;;;;;;;;;;;20.93;73.73;101657.59;4975316;28;99628;-34
2022/07/31 09:32:16;;;;;;;;;;;;;;;20.87;74.12;101659.00;4975895;28;96630;-34
2022/07/31 09:34:42;;;;;;;;;;;;;;;20.77;74.42;101650.72;4977633;28;96925;-34
2022/07/31 09:37:17;;;;;;;;;;;;;;;20.76;74.62;101659.13;4976568;28;99582;-34
2022/07/31 09:39:49;;;;;;;;;;;;;;;20.66;75.60;101659.09;4975455;28;101075;-35
2022/07/31 09:42:14;;;;;;;;;;;;;;;20.67;75.10;101658.09;4976471;28;96504;-34
2022/07/31 09:44:50;;;;;;;;;;;;;;;20.65;75.68;101651.84;4977427;28;96469;-34
2022/07/31 09:47:27;;;;;;;;;;;;;;;20.65;76.24;101664.75;4975306;28;100937;-34
2022/07/31 09:49:54;;;;;;;;;;;;;;;20.56;77.25;101660.97;4975385;28;101245;-34
2022/07/31 09:52:19;;;;;;;;;;;;;;;20.53;76.38;101664.84;4975266;28;96693;-34
2022/07/31 09:54:44;;;;;;;;;;;;;;;20.49;77.65;101665.25;4976802;28;96670;-34
2022/07/31 09:57:11;;;;;;;;;;;;;;;20.46;76.82;101660.03;4976470;28;97565;-34
2022/07/31 09:59:36;;;;;;;;;;;;;;;20.46;77.27;101665.53;4976743;28;99061;-34
2022/07/31 10:02:04;;;;;;;;;;;;;;;20.44;77.71;101657.41;4976933;28;96715;-34
2022/07/31 10:04:30;;;;;;;;;;;;;;;20.44;76.86;101662.91;4976764;28;96850;-34
2022/07/31 10:06:55;;;;;;;;;;;;;;;20.47;76.65;101662.63;4974164;28;100743;-34
2022/07/31 10:09:23;;;;;;;;;;;;;;;20.47;76.97;101662.63;4976421;28;97194;-36
2022/07/31 10:11:49;;;;;;;;;;;;;;;20.55;76.25;101659.19;4975978;28;97185;-33
2022/07/31 10:14:17;;;;;;;;;;;;;;;20.58;76.72;101657.06;4974276;28;96783;-33
2022/07/31 10:16:43;;;;;;;;;;;;;;;20.54;77.26;101658.31;4974844;28;100734;-34
2022/07/31 10:19:10;;;;;;;;;;;;;;;20.58;76.52;101653.44;4976211;28;97832;-33
2022/07/31 10:21:46;;;;;;;;;;;;;;;20.61;76.38;101657.78;4991422;28;96642;-34
2022/07/31 10:24:11;;;;;;;;;;;;;;;20.65;75.98;101648.25;4994819;28;96868;-35
2022/07/31 10:26:36;;;;;;;;;;;;;;;20.64;77.18;101650.13;4995718;28;98329;-34
2022/07/31 10:29:02;;;;;;;;;;;;;;;20.60;78.35;101648.66;4995928;28;97843;-34
2022/07/31 10:31:27;;;;;;;;;;;;;;;20.55;77.78;101650.94;4995847;28;96514;-36
2022/07/31 10:33:54;;;;;;;;;;;;;;;20.51;76.88;101649.47;4995975;28;96781;-34
2022/07/31 10:36:32;;;;;;;;;;;;;;;20.50;77.55;101650.50;4994404;28;101405;-35
2022/07/31 10:39:13;;;;;;;;;;;;;;;20.55;78.21;101648.19;4993596;28;100841;-37
2022/07/31 10:41:41;;;;;;;;;;;;;;;20.56;76.89;101655.44;4994820;28;97061;-37
2022/07/31 10:44:10;;;;;;;;;;;;;;;20.51;76.67;101633.81;4995277;28;96904;-37
2022/07/31 10:46:36;;;;;;;;;;;;;;;20.51;77.71;101633.81;4992979;28;100728;-34
2022/07/31 10:49:01;;;;;;;;;;;;;;;20.54;77.76;101636.28;4995464;28;97742;-34
2022/07/31 10:51:26;;;;;;;;;;;;;;;20.63;77.66;101633.75;4994514;28;96672;-34
2022/07/31 10:53:56;;;;;;;;;;;;;;;20.75;78.26;101621.59;4995740;28;96877;-35
2022/07/31 10:56:21;;;;;;;;;;;;;;;20.99;77.13;101629.47;4994763;28;99567;-34
2022/07/31 10:58:51;;;;;;;;;;;;;;;21.18;76.11;101625.84;4995410;28;97690;-34
2022/07/31 11:01:16;;;;;;;;;;;;;;;21.27;75.83;101621.38;4995711;28;96666;-34
2022/07/31 11:03:45;;;;;;;;;;;;;;;21.37;75.70;101608.44;4995720;28;96707;-34
2022/07/31 11:06:11;;;;;;;;;;;;;;;21.43;75.42;101616.16;4993825;28;100917;-34
2022/07/31 11:08:47;;;;;;;;;;;;;;;21.44;75.31;101619.78;4995322;28;99054;-34
2022/07/31 11:11:13;;;;;;;;;;;;;;;21.36;75.08;101623.25;4994265;28;96615;-34
2022/07/31 11:13:51;;;;;;;;;;;;;;;21.34;75.12;101622.53;4995392;28;96820;-34
2022/07/31 11:16:17;;;;;;;;;;;;;;;21.29;75.33;101622.09;4993844;28;100764;-34
2022/07/31 11:18:45;;;;;;;;;;;;;;;21.23;75.52;101619.91;4995127;28;99230;-36
2022/07/31 11:21:10;;;;;;;;;;;;;;;21.23;76.03;101619.91;4993596;28;96535;-34
2022/07/31 11:23:36;;;;;;;;;;;;;;;21.26;75.91;101625.13;4995773;28;96664;-34
2022/07/31 11:26:06;;;;;;;;;;;;;;;21.30;75.34;101616.41;4994504;28;99795;-34
2022/07/31 11:28:31;;;;;;;;;;;;;;;21.37;75.21;101622.22;4994860;28;99025;-34
2022/07/31 11:30:57;;;;;;;;;;;;;;;21.37;74.70;101620.31;4995076;28;96459;-34
2022/07/31 11:33:32;;;;;;;;;;;;;;;21.39;74.58;101625.69;4995311;28;96802;-34
2022/07/31 11:36:04;;;;;;;;;;;;;;;21.41;74.69;101629.22;4994810;28;99376;-36
2022/07/31 11:38:29;;;;;;;;;;;;;;;21.55;75.15;101626.00;4995433;28;97283;-36
2022/07/31 11:40:54;;;;;;;;;;;;;;;21.65;74.60;101625.13;4995453;28;96452;-34
2022/07/31 11:43:20;;;;;;;;;;;;;;;21.60;73.95;101623.69;4995239;28;96831;-34
2022/07/31 11:45:49;;;;;;;;;;;;;;;21.53;73.97;101619.78;4994588;28;97461;-34
2022/07/31 11:48:14;;;;;;;;;;;;;;;21.51;74.18;101630.06;4993332;28;100942;-34
2022/07/31 11:50:40;;;;;;;;;;;;;;;21.57;73.55;101617.56;4994884;28;96545;-36
2022/07/31 11:53:06;;;;;;;;;;;;;;;21.63;74.59;101622.50;4994980;28;96763;-35
2022/07/31 11:55:31;;;;;;;;;;;;;;;21.62;74.02;101618.88;4994903;28;97950;-36
2022/07/31 11:57:56;;;;;;;;;;;;;;;21.62;73.89;101621.66;4994597;28;97349;-36
2022/07/31 12:00:22;;;;;;;;;;;;;;;21.63;73.67;101626.13;4994962;28;96467;-35
2022/07/31 12:02:47;;;;;;;;;;;;;;;21.62;73.60;101621.66;4995559;28;96813;-36
2022/07/31 12:05:12;;;;;;;;;;;;;;;21.59;73.67;101623.81;4994850;28;98039;-36
2022/07/31 12:07:41;;;;;;;;;;;;;;;21.60;74.38;101626.44;4994617;28;99259;-36
2022/07/31 12:10:07;;;;;;;;;;;;;;;21.65;73.82;101619.63;4994079;28;96509;-36
2022/07/31 12:12:33;;;;;;;;;;;;;;;21.69;73.77;101616.41;4994015;28;96818;-36
2022/07/31 12:14:58;;;;;;;;;;;;;;;21.72;73.51;101606.97;4994652;28;97540;-36
2022/07/31 12:17:23;;;;;;;;;;;;;;;21.72;72.93;101616.13;4994634;28;97312;-36
2022/07/31 12:19:48;;;;;;;;;;;;;;;21.82;73.18;101603.16;4994906;28;96570;-36
2022/07/31 12:22:14;;;;;;;;;;;;;;;21.98;72.92;101608.06;4994486;28;96835;-35
2022/07/31 12:24:40;;;;;;;;;;;;;;;22.27;73.05;101610.72;4994277;28;99240;-36
2022/07/31 12:27:06;;;;;;;;;;;;;;;22.51;71.67;101595.50;4994505;28;99011;-36
2022/07/31 12:29:33;;;;;;;;;;;;;;;22.60;71.31;101600.09;4994844;28;96472;-36
2022/07/31 12:31:58;;;;;;;;;;;;;;;22.99;70.83;101594.31;4994441;28;96858;-35
2022/07/31 12:34:28;;;;;;;;;;;;;;;23.31;69.26;101593.75;4993747;28;97981;-36